Time;durP1;ratioP1;P1;durP2;ratioP2;P2;SDS_P1;SDS_P2;PMS_P1;PMS_P2;Temp;Humidity;BMP_temperature;BMP_pressure;BME280_temperature;BME280_humidity;BME280_pressure;Samples;Min_cycle;Max_cycle;Signal;HPM_P1;HPM_P2
2022/08/10 00:00:50;;;;;;;24.65;21.38;;;;;;;;;;5075726;28;20097;-70
2022/08/10 00:03:16;;;;;;;26.02;22.27;;;;;;;;;;5075658;28;20020;-70
2022/08/10 00:05:42;;;;;;;24.70;21.77;;;;;;;;;;5075346;28;20032;-71
2022/08/10 00:08:08;;;;;;;24.90;21.70;;;;;;;;;;5075436;28;20119;-70
2022/08/10 00:10:34;;;;;;;26.65;22.65;;;;;;;;;;5075992;28;20031;-69
2022/08/10 00:13:00;;;;;;;26.15;22.25;;;;;;;;;;5084128;28;20122;-69
2022/08/10 00:15:26;;;;;;;26.02;21.50;;;;;;;;;;5075889;28;20086;-70
2022/08/10 00:17:53;;;;;;;26.25;21.75;;;;;;;;;;5075470;28;20020;-70
2022/08/10 00:20:19;;;;;;;28.33;23.00;;;;;;;;;;5075292;28;20024;-70
2022/08/10 00:22:45;;;;;;;25.98;22.55;;;;;;;;;;5075305;28;20052;-70
2022/08/10 00:25:11;;;;;;;28.45;21.90;;;;;;;;;;5075191;28;20025;-70
2022/08/10 00:27:37;;;;;;;25.58;21.65;;;;;;;;;;5074959;28;20027;-70
2022/08/10 00:30:04;;;;;;;26.35;21.75;;;;;;;;;;5085166;28;20020;-70
2022/08/10 00:32:30;;;;;;;27.02;22.20;;;;;;;;;;5093254;28;20090;-71
2022/08/10 00:34:56;;;;;;;26.13;21.80;;;;;;;;;;5089022;28;20107;-71
2022/08/10 00:37:22;;;;;;;28.92;22.63;;;;;;;;;;5074975;28;20039;-71
2022/08/10 00:39:48;;;;;;;31.23;21.88;;;;;;;;;;5074124;28;20470;-70
2022/08/10 00:42:15;;;;;;;26.55;21.30;;;;;;;;;;5074806;28;20036;-71
2022/08/10 00:44:42;;;;;;;26.73;19.70;;;;;;;;;;5074970;28;20025;-70
2022/08/10 00:47:09;;;;;;;26.02;21.30;;;;;;;;;;5079128;28;20052;-71
2022/08/10 00:49:35;;;;;;;27.13;23.25;;;;;;;;;;5076153;28;20042;-69
2022/08/10 00:52:02;;;;;;;24.52;20.85;;;;;;;;;;5079764;28;20032;-71
2022/08/10 00:54:28;;;;;;;24.95;20.35;;;;;;;;;;5076533;28;20081;-71
2022/08/10 00:56:55;;;;;;;22.58;19.10;;;;;;;;;;5076277;28;20024;-69
2022/08/10 00:59:21;;;;;;;23.15;19.73;;;;;;;;;;5078950;28;20356;-70
2022/08/10 01:01:47;;;;;;;23.92;19.45;;;;;;;;;;5074723;28;20036;-69
2022/08/10 01:04:13;;;;;;;22.80;19.23;;;;;;;;;;5074310;28;20023;-69
2022/08/10 01:06:48;;;;;;;22.23;18.45;;;;;;;;;;5074584;28;20052;-68
2022/08/10 01:09:20;;;;;;;22.50;18.45;;;;;;;;;;5074137;28;20025;-68
2022/08/10 01:11:50;;;;;;;25.08;19.10;;;;;;;;;;5074349;28;20798;-68
2022/08/10 01:14:21;;;;;;;23.48;18.88;;;;;;;;;;5074131;28;20040;-69
2022/08/10 01:16:51;;;;;;;22.48;18.83;;;;;;;;;;5074343;28;20374;-69
2022/08/10 01:19:20;;;;;;;26.80;18.17;;;;;;;;;;5072914;28;20023;-69
2022/08/10 01:21:46;;;;;;;24.83;18.95;;;;;;;;;;5074253;28;20036;-68
2022/08/10 01:24:39;;;;;;;21.23;18.35;;;;;;;;;;5073790;28;20028;-69
2022/08/10 01:27:11;;;;;;;23.55;18.67;;;;;;;;;;5071290;28;20489;-68
2022/08/10 01:29:43;;;;;;;22.17;18.55;;;;;;;;;;5074004;28;20382;-69
2022/08/10 01:32:11;;;;;;;22.52;18.85;;;;;;;;;;5073747;28;20098;-68
2022/08/10 01:34:57;;;;;;;25.27;18.85;;;;;;;;;;5086557;28;20135;-68
2022/08/10 01:37:26;;;;;;;22.10;18.58;;;;;;;;;;5001004;28;20049;-68
2022/08/10 01:39:55;;;;;;;23.95;18.92;;;;;;;;;;5011884;28;20038;-68
2022/08/10 01:42:23;;;;;;;22.10;17.65;;;;;;;;;;5012065;28;20042;-68
2022/08/10 01:44:50;;;;;;;21.95;19.15;;;;;;;;;;5011942;28;20062;-68
2022/08/10 01:50:07;;;;;;;22.30;19.20;;;;;;;;;;5007092;28;20041;-69
2022/08/10 01:52:35;;;;;;;23.60;18.38;;;;;;;;;;5011598;28;20038;-70
2022/08/10 01:55:01;;;;;;;26.40;18.42;;;;;;;;;;5011695;28;20033;-70
2022/08/10 01:57:28;;;;;;;19.92;16.80;;;;;;;;;;5011758;28;20049;-71
2022/08/10 01:59:56;;;;;;;22.70;17.38;;;;;;;;;;5011558;28;20097;-70
2022/08/10 02:02:22;;;;;;;21.33;17.48;;;;;;;;;;5011644;28;20121;-70
2022/08/10 02:04:50;;;;;;;22.42;17.63;;;;;;;;;;5011407;28;20097;-70
2022/08/10 02:07:17;;;;;;;26.13;18.30;;;;;;;;;;5005066;28;20082;-70
2022/08/10 02:09:46;;;;;;;21.58;17.23;;;;;;;;;;4991829;28;20121;-70
2022/08/10 02:12:14;;;;;;;25.95;19.60;;;;;;;;;;5010825;28;20144;-69
2022/08/10 02:14:46;;;;;;;26.42;18.55;;;;;;;;;;5047449;28;20670;-69
2022/08/10 02:17:15;;;;;;;22.73;17.88;;;;;;;;;;5073039;28;20367;-69
2022/08/10 02:19:45;;;;;;;24.25;18.42;;;;;;;;;;5084486;28;20032;-68
2022/08/10 02:22:11;;;;;;;23.40;18.60;;;;;;;;;;5089625;28;20034;-69
2022/08/10 02:24:39;;;;;;;22.00;18.20;;;;;;;;;;5072878;28;20052;-68
2022/08/10 02:27:05;;;;;;;27.60;18.38;;;;;;;;;;5072754;28;20103;-68
2022/08/10 02:29:32;;;;;;;24.52;18.83;;;;;;;;;;5072960;28;20467;-68
2022/08/10 02:31:58;;;;;;;23.67;16.80;;;;;;;;;;5085917;28;20070;-68
2022/08/10 02:34:24;;;;;;;20.83;17.67;;;;;;;;;;5085279;28;20036;-69
2022/08/10 02:36:53;;;;;;;22.52;17.98;;;;;;;;;;5074052;28;20052;-69
2022/08/10 02:39:20;;;;;;;26.70;18.40;;;;;;;;;;5084312;28;20036;-69
2022/08/10 02:41:49;;;;;;;22.08;18.40;;;;;;;;;;5074344;28;20023;-68
2022/08/10 02:44:21;;;;;;;21.08;17.58;;;;;;;;;;5072845;28;20086;-68
2022/08/10 02:46:50;;;;;;;21.92;17.33;;;;;;;;;;5073627;28;20029;-69
2022/08/10 02:49:21;;;;;;;22.75;17.20;;;;;;;;;;5072755;28;20070;-68
2022/08/10 02:51:52;;;;;;;22.98;17.17;;;;;;;;;;5072899;28;20035;-68
2022/08/10 02:54:23;;;;;;;23.90;17.20;;;;;;;;;;5072853;28;20055;-69
2022/08/10 02:56:55;;;;;;;20.73;17.38;;;;;;;;;;5085369;28;20031;-69
2022/08/10 02:59:29;;;;;;;21.42;16.73;;;;;;;;;;5072667;28;20031;-69
2022/08/10 03:01:57;;;;;;;19.45;16.55;;;;;;;;;;5085430;28;20081;-69
2022/08/10 03:04:30;;;;;;;21.45;17.00;;;;;;;;;;5075212;28;20036;-68
2022/08/10 03:06:59;;;;;;;21.15;16.48;;;;;;;;;;5089812;28;20390;-69
2022/08/10 03:09:27;;;;;;;22.55;17.95;;;;;;;;;;5076780;28;20451;-69
2022/08/10 03:11:53;;;;;;;23.30;18.30;;;;;;;;;;5076962;28;20104;-69
2022/08/10 03:14:20;;;;;;;24.50;17.90;;;;;;;;;;5076624;28;20103;-68
2022/08/10 03:16:47;;;;;;;21.65;17.67;;;;;;;;;;5076740;28;20065;-68
2022/08/10 03:19:14;;;;;;;19.63;17.33;;;;;;;;;;5084098;28;20070;-69
2022/08/10 03:21:40;;;;;;;22.42;18.15;;;;;;;;;;5075825;28;20016;-69
2022/08/10 03:24:07;;;;;;;23.27;18.17;;;;;;;;;;5085850;28;20154;-70
2022/08/10 03:26:34;;;;;;;22.80;16.80;;;;;;;;;;5082011;28;20531;-69
2022/08/10 03:29:02;;;;;;;24.27;18.30;;;;;;;;;;5078198;28;20033;-69
2022/08/10 03:31:28;;;;;;;19.50;16.20;;;;;;;;;;5080101;28;20025;-70
2022/08/10 03:33:55;;;;;;;22.83;17.33;;;;;;;;;;5080297;28;20029;-71
2022/08/10 03:36:21;;;;;;;21.48;16.63;;;;;;;;;;5075460;28;20052;-68
2022/08/10 03:38:50;;;;;;;23.02;16.42;;;;;;;;;;5085254;28;20843;-69
2022/08/10 03:41:17;;;;;;;20.08;15.88;;;;;;;;;;5075993;28;20103;-69
2022/08/10 03:43:47;;;;;;;19.52;15.23;;;;;;;;;;5075982;28;20013;-69
2022/08/10 03:46:14;;;;;;;18.83;14.77;;;;;;;;;;5076046;28;20020;-69
2022/08/10 03:48:41;;;;;;;16.20;13.95;;;;;;;;;;5075919;28;20032;-68
2022/08/10 03:51:08;;;;;;;19.95;14.75;;;;;;;;;;5075761;28;20519;-69
2022/08/10 03:53:34;;;;;;;18.92;14.90;;;;;;;;;;5075499;28;20070;-68
2022/08/10 03:56:01;;;;;;;18.75;14.65;;;;;;;;;;5075699;28;20021;-69
2022/08/10 03:58:27;;;;;;;18.98;13.57;;;;;;;;;;5075747;28;20100;-69
2022/08/10 04:00:55;;;;;;;20.80;14.70;;;;;;;;;;5075755;28;20020;-68
2022/08/10 04:03:21;;;;;;;20.42;17.23;;;;;;;;;;5075645;28;20036;-68
2022/08/10 04:05:47;;;;;;;22.95;17.80;;;;;;;;;;5075703;28;20025;-68
2022/08/10 04:08:13;;;;;;;21.30;16.15;;;;;;;;;;5075503;28;20119;-68
2022/08/10 04:10:40;;;;;;;15.60;13.73;;;;;;;;;;5075514;28;20378;-68
2022/08/10 04:13:06;;;;;;;22.15;14.05;;;;;;;;;;5075331;28;20086;-68
2022/08/10 04:15:32;;;;;;;18.83;13.85;;;;;;;;;;5072973;28;20390;-68
2022/08/10 04:17:58;;;;;;;17.17;13.25;;;;;;;;;;5075487;28;20024;-68
2022/08/10 04:20:24;;;;;;;22.88;15.10;;;;;;;;;;5075219;28;20051;-69
2022/08/10 04:22:52;;;;;;;19.95;13.38;;;;;;;;;;5075262;28;20024;-69
2022/08/10 04:25:19;;;;;;;16.35;13.10;;;;;;;;;;5075280;28;20020;-68
2022/08/10 04:27:46;;;;;;;18.63;14.50;;;;;;;;;;5075281;28;20027;-66
2022/08/10 04:30:12;;;;;;;19.50;13.85;;;;;;;;;;5075203;28;20502;-66
2022/08/10 04:32:39;;;;;;;18.65;14.38;;;;;;;;;;5074957;28;20115;-68
2022/08/10 04:35:06;;;;;;;18.95;15.50;;;;;;;;;;5089184;28;20044;-67
2022/08/10 04:37:33;;;;;;;19.05;14.88;;;;;;;;;;5075101;28;20390;-67
2022/08/10 04:40:00;;;;;;;21.63;14.77;;;;;;;;;;5074886;28;20104;-67
2022/08/10 04:42:26;;;;;;;17.67;13.98;;;;;;;;;;5075009;28;20020;-67
2022/08/10 04:44:53;;;;;;;18.65;14.20;;;;;;;;;;5074730;28;20026;-67
2022/08/10 04:47:19;;;;;;;15.85;13.50;;;;;;;;;;5074833;28;20529;-67
2022/08/10 04:49:45;;;;;;;18.40;12.73;;;;;;;;;;5074781;28;20024;-67
2022/08/10 04:52:11;;;;;;;20.42;15.23;;;;;;;;;;5074353;28;20037;-67
2022/08/10 04:54:37;;;;;;;22.73;13.55;;;;;;;;;;5074691;28;20506;-67
2022/08/10 04:57:04;;;;;;;17.85;13.80;;;;;;;;;;5074523;28;20118;-68
2022/08/10 04:59:30;;;;;;;16.40;12.93;;;;;;;;;;5074637;28;20055;-67
2022/08/10 05:01:56;;;;;;;22.52;14.88;;;;;;;;;;5074748;28;20379;-67
2022/08/10 05:04:22;;;;;;;15.50;13.75;;;;;;;;;;5074868;28;20032;-67
2022/08/10 05:06:48;;;;;;;18.23;13.65;;;;;;;;;;5074437;28;20495;-68
2022/08/10 05:09:14;;;;;;;16.83;12.80;;;;;;;;;;5074313;28;20372;-68
2022/08/10 05:11:40;;;;;;;16.30;13.00;;;;;;;;;;5074501;28;20031;-68
2022/08/10 05:14:06;;;;;;;17.35;12.90;;;;;;;;;;5074482;28;20440;-67
2022/08/10 05:16:32;;;;;;;16.88;12.32;;;;;;;;;;5074343;28;20028;-68
2022/08/10 05:18:58;;;;;;;14.88;12.50;;;;;;;;;;5074265;28;20020;-67
2022/08/10 05:21:24;;;;;;;14.88;12.65;;;;;;;;;;5074023;28;20024;-67
2022/08/10 05:23:51;;;;;;;16.38;13.18;;;;;;;;;;5074241;28;20044;-67
2022/08/10 05:26:17;;;;;;;16.63;13.43;;;;;;;;;;5073459;28;20033;-68
2022/08/10 05:28:43;;;;;;;17.55;13.90;;;;;;;;;;5074285;28;20079;-67
2022/08/10 05:31:09;;;;;;;16.50;13.15;;;;;;;;;;5074017;28;20020;-67
2022/08/10 05:33:35;;;;;;;19.13;13.05;;;;;;;;;;5079441;28;20058;-67
2022/08/10 05:36:02;;;;;;;14.63;11.82;;;;;;;;;;5082139;28;20045;-68
2022/08/10 05:38:28;;;;;;;21.25;14.25;;;;;;;;;;5071946;28;20399;-68
2022/08/10 05:40:55;;;;;;;18.20;11.48;;;;;;;;;;5073690;28;20093;-69
2022/08/10 05:43:21;;;;;;;13.57;11.38;;;;;;;;;;5073834;28;20029;-69
2022/08/10 05:45:48;;;;;;;15.75;12.73;;;;;;;;;;5073682;28;20016;-69
2022/08/10 05:48:14;;;;;;;15.70;11.95;;;;;;;;;;5073772;28;20420;-69
2022/08/10 05:50:40;;;;;;;16.02;11.18;;;;;;;;;;5073878;28;20379;-69
2022/08/10 05:53:06;;;;;;;12.65;10.52;;;;;;;;;;5073383;28;20075;-68
2022/08/10 05:55:32;;;;;;;14.63;11.63;;;;;;;;;;5073225;28;20009;-68
2022/08/10 05:58:00;;;;;;;12.82;10.80;;;;;;;;;;5073347;28;20104;-68
2022/08/10 06:00:26;;;;;;;15.05;10.80;;;;;;;;;;5073575;28;20442;-68
2022/08/10 06:02:58;;;;;;;12.98;10.65;;;;;;;;;;5073340;28;20471;-68
2022/08/10 06:05:25;;;;;;;14.90;10.90;;;;;;;;;;5073634;28;20036;-68
2022/08/10 06:08:24;;;;;;;17.42;11.70;;;;;;;;;;5073287;28;20426;-68
2022/08/10 06:10:51;;;;;;;12.20;10.90;;;;;;;;;;5011281;28;20030;-68
2022/08/10 06:16:04;;;;;;;15.88;11.48;;;;;;;;;;5011370;28;20112;-68
2022/08/10 06:18:30;;;;;;;13.07;11.23;;;;;;;;;;5011340;28;20030;-69
2022/08/10 06:20:57;;;;;;;16.98;11.15;;;;;;;;;;5011213;28;20037;-68
2022/08/10 06:23:25;;;;;;;12.43;10.30;;;;;;;;;;5011238;28;20037;-68
2022/08/10 06:25:51;;;;;;;16.90;11.13;;;;;;;;;;4993345;28;20022;-68
2022/08/10 06:28:18;;;;;;;11.82;10.48;;;;;;;;;;5011268;28;20057;-68
2022/08/10 06:30:45;;;;;;;13.80;11.20;;;;;;;;;;5010941;28;20096;-68
2022/08/10 06:33:12;;;;;;;12.65;11.18;;;;;;;;;;5010943;28;20045;-68
2022/08/10 06:35:38;;;;;;;52.45;15.15;;;;;;;;;;5010704;28;20048;-69
2022/08/10 06:38:05;;;;;;;15.00;11.90;;;;;;;;;;5010269;28;20370;-68
2022/08/10 06:40:33;;;;;;;16.63;11.30;;;;;;;;;;5010807;28;20034;-69
2022/08/10 06:43:01;;;;;;;17.85;12.57;;;;;;;;;;5010926;28;20503;-69
2022/08/10 06:45:30;;;;;;;17.58;12.43;;;;;;;;;;5017396;28;20034;-69
2022/08/10 06:48:05;;;;;;;15.75;12.57;;;;;;;;;;5072596;28;20028;-69
2022/08/10 06:50:46;;;;;;;16.08;12.48;;;;;;;;;;5072546;28;20033;-68
2022/08/10 06:53:17;;;;;;;17.52;13.65;;;;;;;;;;5071074;28;20115;-69
2022/08/10 06:55:51;;;;;;;19.52;13.80;;;;;;;;;;5072465;28;20028;-69
2022/08/10 06:58:20;;;;;;;16.50;14.02;;;;;;;;;;5072475;28;20538;-68
2022/08/10 07:00:46;;;;;;;17.75;15.57;;;;;;;;;;5072513;28;20012;-69
2022/08/10 07:03:15;;;;;;;22.10;16.27;;;;;;;;;;5072631;28;20021;-69
2022/08/10 07:05:46;;;;;;;19.17;16.73;;;;;;;;;;5072469;28;20056;-69
2022/08/10 07:08:14;;;;;;;18.65;16.77;;;;;;;;;;5072563;28;20017;-69
2022/08/10 07:10:41;;;;;;;16.77;15.07;;;;;;;;;;5072269;28;20020;-69
2022/08/10 07:13:08;;;;;;;18.70;14.32;;;;;;;;;;5072441;28;20196;-69
2022/08/10 07:15:36;;;;;;;16.70;14.95;;;;;;;;;;5072290;28;20020;-68
2022/08/10 07:18:02;;;;;;;17.58;15.48;;;;;;;;;;5072879;28;20031;-68
2022/08/10 07:20:29;;;;;;;19.13;17.25;;;;;;;;;;5072552;28;20386;-69
2022/08/10 07:22:55;;;;;;;19.33;16.60;;;;;;;;;;5072238;28;20017;-69
2022/08/10 07:25:24;;;;;;;19.20;17.13;;;;;;;;;;5072290;28;20029;-69
2022/08/10 07:27:50;;;;;;;16.58;14.93;;;;;;;;;;5072226;28;20052;-69
2022/08/10 07:30:16;;;;;;;20.15;15.88;;;;;;;;;;5072432;28;20034;-69
2022/08/10 07:32:47;;;;;;;17.45;14.48;;;;;;;;;;5072288;28;20032;-69
2022/08/10 07:35:14;;;;;;;16.70;14.80;;;;;;;;;;5086415;28;20037;-69
2022/08/10 07:37:41;;;;;;;16.77;15.15;;;;;;;;;;5070498;28;20036;-69
2022/08/10 07:40:09;;;;;;;17.77;14.90;;;;;;;;;;5071957;28;20012;-69
2022/08/10 07:42:37;;;;;;;19.52;15.32;;;;;;;;;;5072078;28;20100;-69
2022/08/10 07:45:04;;;;;;;18.00;16.10;;;;;;;;;;5072224;28;20425;-69
2022/08/10 07:47:32;;;;;;;20.30;18.25;;;;;;;;;;5072306;28;20043;-69
2022/08/10 07:50:01;;;;;;;17.73;15.73;;;;;;;;;;5075206;28;20052;-69
2022/08/10 07:52:28;;;;;;;17.83;14.98;;;;;;;;;;5074516;28;20029;-69
2022/08/10 07:54:55;;;;;;;18.58;15.70;;;;;;;;;;5076206;28;20107;-69
2022/08/10 07:57:26;;;;;;;19.45;17.65;;;;;;;;;;5075609;28;20035;-69
2022/08/10 07:59:52;;;;;;;;;;;;;;;;;;5076203;28;20387;-69
2022/08/10 08:02:23;;;;;;;19.17;17.17;;;;;;;;;;5075514;28;19912;-69
2022/08/10 08:04:49;;;;;;;19.23;17.25;;;;;;;;;;5075756;28;20021;-69
2022/08/10 08:07:16;;;;;;;19.42;17.52;;;;;;;;;;5075794;28;20031;-69
2022/08/10 08:09:43;;;;;;;18.70;16.95;;;;;;;;;;5076027;28;20363;-69
2022/08/10 08:12:10;;;;;;;18.83;17.02;;;;;;;;;;5075191;28;20028;-69
2022/08/10 08:14:38;;;;;;;20.35;17.98;;;;;;;;;;5075486;28;20383;-69
2022/08/10 08:17:06;;;;;;;29.42;26.23;;;;;;;;;;5075365;28;20031;-69
2022/08/10 08:19:32;;;;;;;20.55;18.52;;;;;;;;;;5075340;28;20060;-69
2022/08/10 08:21:59;;;;;;;19.45;17.63;;;;;;;;;;5075270;28;20428;-69
2022/08/10 08:24:26;;;;;;;21.08;19.13;;;;;;;;;;5075060;28;20490;-69
2022/08/10 08:26:53;;;;;;;17.33;15.70;;;;;;;;;;5075218;28;20019;-69
2022/08/10 08:29:20;;;;;;;16.98;15.15;;;;;;;;;;5075166;28;20365;-69
2022/08/10 08:31:46;;;;;;;16.73;15.10;;;;;;;;;;5075108;28;20046;-69
2022/08/10 08:34:13;;;;;;;14.63;13.13;;;;;;;;;;5085621;28;20059;-69
2022/08/10 08:36:39;;;;;;;13.27;11.98;;;;;;;;;;5077707;28;20059;-69
2022/08/10 08:39:06;;;;;;;14.00;12.55;;;;;;;;;;5074854;28;20063;-69
2022/08/10 08:41:32;;;;;;;13.70;12.30;;;;;;;;;;5074536;28;20032;-69
2022/08/10 08:44:18;;;;;;;12.07;10.43;;;;;;;;;;5073714;28;20027;-69
2022/08/10 08:47:04;;;;;;;10.40;9.32;;;;;;;;;;5074434;28;20028;-69
2022/08/10 08:49:41;;;;;;;10.73;8.55;;;;;;;;;;5074677;28;20032;-69
2022/08/10 08:52:07;;;;;;;9.65;8.65;;;;;;;;;;5074395;28;20021;-69
2022/08/10 08:54:42;;;;;;;10.82;8.30;;;;;;;;;;5074891;28;20037;-70
2022/08/10 08:57:23;;;;;;;8.13;7.32;;;;;;;;;;5074515;28;20430;-69
2022/08/10 08:59:49;;;;;;;11.82;7.90;;;;;;;;;;5073802;28;20074;-69
2022/08/10 09:02:24;;;;;;;10.27;8.70;;;;;;;;;;5074301;28;20033;-70
2022/08/10 09:05:05;;;;;;;8.70;7.82;;;;;;;;;;5074326;28;20167;-70
2022/08/10 09:07:42;;;;;;;8.55;7.57;;;;;;;;;;5074181;28;20025;-70
2022/08/10 09:10:27;;;;;;;8.15;7.25;;;;;;;;;;5074427;28;20078;-69
2022/08/10 09:12:56;;;;;;;9.98;8.38;;;;;;;;;;5074148;28;20162;-70
2022/08/10 09:15:25;;;;;;;9.23;8.32;;;;;;;;;;5074192;28;20111;-70
2022/08/10 09:18:00;;;;;;;18.58;9.18;;;;;;;;;;5074190;28;20086;-70
2022/08/10 09:20:46;;;;;;;11.60;8.98;;;;;;;;;;5074016;28;20162;-69
2022/08/10 09:23:15;;;;;;;7.50;6.80;;;;;;;;;;5073802;28;20066;-70
2022/08/10 09:25:52;;;;;;;8.10;7.30;;;;;;;;;;5074098;28;20025;-69
2022/08/10 09:28:22;;;;;;;7.30;6.60;;;;;;;;;;5074101;28;20154;-70
2022/08/10 09:30:59;;;;;;;7.57;5.93;;;;;;;;;;5074197;28;20379;-70
2022/08/10 09:33:44;;;;;;;13.20;7.40;;;;;;;;;;5078498;28;20118;-69
2022/08/10 09:36:10;;;;;;;7.15;6.40;;;;;;;;;;5080939;28;20044;-69
2022/08/10 09:38:39;;;;;;;7.80;6.10;;;;;;;;;;5072409;28;20364;-69
2022/08/10 09:41:38;;;;;;;9.65;6.55;;;;;;;;;;5073850;28;20043;-69
2022/08/10 09:44:04;;;;;;;7.85;6.60;;;;;;;;;;5039375;28;20103;-70
2022/08/10 09:46:33;;;;;;;7.15;5.45;;;;;;;;;;5051445;28;20025;-70
2022/08/10 09:49:13;;;;;;;6.70;6.03;;;;;;;;;;5051653;28;20534;-69
2022/08/10 09:51:46;;;;;;;8.43;6.30;;;;;;;;;;5051346;28;20523;-69
2022/08/10 09:54:15;;;;;;;7.68;6.38;;;;;;;;;;5027296;28;20065;-69
2022/08/10 09:56:56;;;;;;;7.57;6.63;;;;;;;;;;5045055;28;20040;-69
2022/08/10 09:59:22;;;;;;;6.65;5.70;;;;;;;;;;5051278;28;20088;-69
2022/08/10 10:01:51;;;;;;;6.82;5.80;;;;;;;;;;5051258;28;20084;-69
2022/08/10 10:04:28;;;;;;;7.00;5.63;;;;;;;;;;5051032;28;20071;-70
2022/08/10 10:07:02;;;;;;;7.72;6.88;;;;;;;;;;5051152;28;20041;-70
2022/08/10 10:09:38;;;;;;;6.97;6.03;;;;;;;;;;5051104;28;20040;-69
2022/08/10 10:12:10;;;;;;;12.35;5.78;;;;;;;;;;5050939;28;20046;-69
2022/08/10 10:15:18;;;;;;;6.13;5.50;;;;;;;;;;5051242;28;20513;-69
2022/08/10 10:17:26;;;;;;;7.75;5.50;;;;;;;;;;5050769;28;20075;-68
2022/08/10 10:19:59;;;;;;;6.53;5.30;;;;;;;;;;5064099;28;20052;-69
2022/08/10 10:22:36;;;;;;;8.27;5.43;;;;;;;;;;5072917;28;20028;-70
2022/08/10 10:25:02;;;;;;;6.45;5.65;;;;;;;;;;5072889;28;20051;-70
2022/08/10 10:27:39;;;;;;;5.70;4.82;;;;;;;;;;5072743;28;20050;-70
2022/08/10 10:30:05;;;;;;;6.72;5.00;;;;;;;;;;5073048;28;20031;-69
2022/08/10 10:32:34;;;;;;;5.70;4.55;;;;;;;;;;5072640;28;20449;-69
2022/08/10 10:35:03;;;;;;;7.88;5.85;;;;;;;;;;5087052;28;20493;-70
2022/08/10 10:37:30;;;;;;;6.03;5.03;;;;;;;;;;5072694;28;20468;-70
2022/08/10 10:39:57;;;;;;;6.15;5.50;;;;;;;;;;5072741;28;20024;-70
2022/08/10 10:42:26;;;;;;;7.45;5.07;;;;;;;;;;5072551;28;20028;-69
2022/08/10 10:45:04;;;;;;;5.60;5.10;;;;;;;;;;5072580;28;20517;-70
2022/08/10 10:47:45;;;;;;;7.72;5.25;;;;;;;;;;5072821;28;20063;-70
2022/08/10 10:50:13;;;;;;;5.28;4.78;;;;;;;;;;5072697;28;20356;-70
2022/08/10 10:52:42;;;;;;;7.28;5.40;;;;;;;;;;5072582;28;20086;-70
2022/08/10 10:55:14;;;;;;;10.82;6.38;;;;;;;;;;5072669;28;20048;-69
2022/08/10 10:57:46;;;;;;;5.45;4.95;;;;;;;;;;5072887;28;20032;-70
2022/08/10 11:00:12;;;;;;;8.30;4.85;;;;;;;;;;5072733;28;20426;-70
2022/08/10 11:02:57;;;;;;;6.78;4.57;;;;;;;;;;5072467;28;20025;-70
2022/08/10 11:05:23;;;;;;;8.27;5.15;;;;;;;;;;5072643;28;20056;-70
2022/08/10 11:08:04;;;;;;;7.05;4.65;;;;;;;;;;5072498;28;20119;-69
2022/08/10 11:10:33;;;;;;;5.07;3.92;;;;;;;;;;5072440;28;20104;-68
2022/08/10 11:13:17;;;;;;;6.25;4.47;;;;;;;;;;5072655;28;20037;-70
2022/08/10 11:15:49;;;;;;;5.47;4.45;;;;;;;;;;5072266;28;20111;-68
2022/08/10 11:18:24;;;;;;;6.88;4.80;;;;;;;;;;5072366;28;20017;-68
2022/08/10 11:21:13;;;;;;;4.70;3.70;;;;;;;;;;5072185;28;20116;-68
2022/08/10 11:23:51;;;;;;;10.68;5.03;;;;;;;;;;5073726;28;20100;-70
2022/08/10 11:26:24;;;;;;;12.80;5.72;;;;;;;;;;5076235;28;20021;-70
2022/08/10 11:28:52;;;;;;;5.05;4.55;;;;;;;;;;5076203;28;20040;-70
2022/08/10 11:31:26;;;;;;;8.25;4.40;;;;;;;;;;5075843;28;20463;-70
2022/08/10 11:33:52;;;;;;;7.25;4.15;;;;;;;;;;5082261;28;20097;-70
2022/08/10 11:36:24;;;;;;;5.38;4.72;;;;;;;;;;5081945;28;20098;-70
2022/08/10 11:38:53;;;;;;;5.97;4.25;;;;;;;;;;5076050;28;20375;-70
2022/08/10 11:41:38;;;;;;;4.45;3.90;;;;;;;;;;5076069;28;20028;-69
2022/08/10 11:44:08;;;;;;;5.53;4.00;;;;;;;;;;5075848;28;20024;-69
2022/08/10 11:46:36;;;;;;;9.40;4.80;;;;;;;;;;5075665;28;20031;-69
2022/08/10 11:49:09;;;;;;;6.03;4.28;;;;;;;;;;5075750;28;20345;-70
2022/08/10 11:51:49;;;;;;;4.82;4.03;;;;;;;;;;5075735;28;20032;-70
2022/08/10 11:54:18;;;;;;;5.78;4.75;;;;;;;;;;5075563;28;20597;-70
2022/08/10 11:56:50;;;;;;;6.72;4.93;;;;;;;;;;5075369;28;20020;-70
2022/08/10 12:02:04;;;;;;;6.00;4.30;;;;;;;;;;5075640;28;20035;-70
2022/08/10 12:04:31;;;;;;;9.55;4.72;;;;;;;;;;5075614;28;20028;-70
2022/08/10 12:06:57;;;;;;;5.78;4.93;;;;;;;;;;5075228;28;20037;-69
2022/08/10 12:09:24;;;;;;;5.57;4.53;;;;;;;;;;5075358;28;20036;-70
2022/08/10 12:11:51;;;;;;;8.15;4.43;;;;;;;;;;5075548;28;20149;-70
2022/08/10 12:14:19;;;;;;;9.10;5.50;;;;;;;;;;5075411;28;20107;-70
2022/08/10 12:16:47;;;;;;;6.45;5.63;;;;;;;;;;5075269;28;20063;-68
2022/08/10 12:19:32;;;;;;;6.80;6.10;;;;;;;;;;5075385;28;20061;-70
2022/08/10 12:22:05;;;;;;;7.35;5.38;;;;;;;;;;5075222;28;20490;-70
2022/08/10 12:24:39;;;;;;;9.07;4.38;;;;;;;;;;5080014;28;20024;-70
2022/08/10 12:27:11;;;;;;;7.38;4.75;;;;;;;;;;5081907;28;20499;-70
2022/08/10 12:29:47;;;;;;;6.13;4.63;;;;;;;;;;5074912;28;20021;-70
2022/08/10 12:32:16;;;;;;;7.25;4.65;;;;;;;;;;5074896;28;20074;-69
2022/08/10 12:34:52;;;;;;;6.65;4.20;;;;;;;;;;5088096;28;20032;-70
2022/08/10 12:37:44;;;;;;;15.60;9.00;;;;;;;;;;5074663;28;20051;-70
2022/08/10 12:40:17;;;;;;;7.53;5.10;;;;;;;;;;5064561;28;20056;-70
2022/08/10 12:42:50;;;;;;;6.60;4.70;;;;;;;;;;5074623;28;20097;-70
2022/08/10 12:45:19;;;;;;;6.88;4.80;;;;;;;;;;5074746;28;20028;-70
2022/08/10 12:47:58;;;;;;;7.13;5.05;;;;;;;;;;5074667;28;20028;-70
2022/08/10 12:50:30;;;;;;;9.57;6.38;;;;;;;;;;5074677;28;20081;-70
2022/08/10 12:53:14;;;;;;;10.75;5.60;;;;;;;;;;5074930;28;20395;-70
2022/08/10 12:55:40;;;;;;;5.63;5.03;;;;;;;;;;5074483;28;20032;-70
2022/08/10 12:58:11;;;;;;;7.57;5.80;;;;;;;;;;5074480;28;20047;-70
2022/08/10 13:00:37;;;;;;;;;;;;;;;;;;5075133;28;20020;-69
2022/08/10 13:03:05;;;;;;;7.75;4.82;;;;;;;;;;5074517;28;19911;-70
2022/08/10 13:05:32;;;;;;;5.80;5.15;;;;;;;;;;5074630;28;20039;-70
2022/08/10 13:10:55;;;;;;;6.18;5.28;;;;;;;;;;5074601;28;20028;-70
2022/08/10 13:13:27;;;;;;;9.13;4.32;;;;;;;;;;5074218;28;20033;-70
2022/08/10 13:15:56;;;;;;;9.48;4.82;;;;;;;;;;5074166;28;20021;-70
2022/08/10 13:18:28;;;;;;;5.80;5.20;;;;;;;;;;5074101;28;20032;-70
2022/08/10 13:20:59;;;;;;;5.43;4.30;;;;;;;;;;5073882;28;20020;-70
2022/08/10 13:23:29;;;;;;;5.82;4.63;;;;;;;;;;5073947;28;20031;-70
2022/08/10 13:25:57;;;;;;;6.17;5.30;;;;;;;;;;5073963;28;20154;-71
2022/08/10 13:28:27;;;;;;;7.93;4.82;;;;;;;;;;5073803;28;20045;-70
2022/08/10 13:30:54;;;;;;;5.97;4.30;;;;;;;;;;5073668;28;20479;-71
2022/08/10 13:33:25;;;;;;;8.23;4.78;;;;;;;;;;5077201;28;20372;-70
2022/08/10 13:35:56;;;;;;;5.88;4.40;;;;;;;;;;5081797;28;20123;-71
2022/08/10 13:38:24;;;;;;;5.43;4.50;;;;;;;;;;5073784;28;20017;-70
2022/08/10 13:40:51;;;;;;;6.57;4.78;;;;;;;;;;5072577;28;20494;-70
2022/08/10 13:43:18;;;;;;;6.13;4.18;;;;;;;;;;5073631;28;20032;-70
2022/08/10 13:45:45;;;;;;;7.75;3.60;;;;;;;;;;5073591;28;20021;-70
2022/08/10 13:48:14;;;;;;;5.32;4.60;;;;;;;;;;5073528;28;20475;-70
2022/08/10 13:50:41;;;;;;;6.75;4.43;;;;;;;;;;5073746;28;20017;-70
2022/08/10 13:53:13;;;;;;;4.95;4.05;;;;;;;;;;5073510;28;20032;-70
2022/08/10 13:55:56;;;;;;;8.05;3.72;;;;;;;;;;5073397;28;20062;-70
2022/08/10 13:58:27;;;;;;;6.38;3.95;;;;;;;;;;5073310;28;20050;-70
2022/08/10 14:00:55;;;;;;;5.80;4.28;;;;;;;;;;5073511;28;20050;-69
2022/08/10 14:03:22;;;;;;;5.55;4.40;;;;;;;;;;5073253;28;20035;-68
2022/08/10 14:05:53;;;;;;;9.65;5.78;;;;;;;;;;5073516;28;20103;-69
2022/08/10 14:08:29;;;;;;;5.32;4.13;;;;;;;;;;5073397;28;20029;-69
2022/08/10 14:10:59;;;;;;;5.72;4.95;;;;;;;;;;5073211;28;20383;-69
2022/08/10 14:13:26;;;;;;;4.22;3.83;;;;;;;;;;5072983;28;20029;-70
2022/08/10 14:15:54;;;;;;;7.50;6.15;;;;;;;;;;5073123;28;20562;-69
2022/08/10 14:18:20;;;;;;;6.00;4.35;;;;;;;;;;5073064;28;20482;-69
2022/08/10 14:20:47;;;;;;;5.35;4.85;;;;;;;;;;5073157;28;20028;-68
2022/08/10 14:23:14;;;;;;;8.18;3.80;;;;;;;;;;5073542;28;20021;-69
2022/08/10 14:25:47;;;;;;;6.05;5.40;;;;;;;;;;5073348;28;20035;-69
2022/08/10 14:28:15;;;;;;;5.47;4.30;;;;;;;;;;5072897;28;20017;-69
2022/08/10 14:30:42;;;;;;;5.07;3.92;;;;;;;;;;5072884;28;20029;-69
2022/08/10 14:33:08;;;;;;;4.47;3.78;;;;;;;;;;5074508;28;20036;-69
2022/08/10 14:35:36;;;;;;;4.95;4.10;;;;;;;;;;5084953;28;20102;-70
2022/08/10 14:38:08;;;;;;;4.93;4.13;;;;;;;;;;5072586;28;20059;-69
2022/08/10 14:40:39;;;;;;;5.65;4.68;;;;;;;;;;5072792;28;20119;-69
2022/08/10 14:43:08;;;;;;;4.53;3.80;;;;;;;;;;5072809;28;20066;-69
2022/08/10 14:45:36;;;;;;;8.35;4.22;;;;;;;;;;5072573;28;20052;-70
2022/08/10 14:48:06;;;;;;;7.32;4.60;;;;;;;;;;5072701;28;20050;-69
2022/08/10 14:50:32;;;;;;;5.77;3.97;;;;;;;;;;5072542;28;20056;-69
2022/08/10 14:52:59;;;;;;;6.47;4.28;;;;;;;;;;5072855;28;20390;-69